sensor_id;sensor_type;location;lat;lon;timestamp;P1;durP1;ratioP1;P2;durP2;ratioP2
80115;SDS011;69423;47.608;19.366;2023-06-22T00:00:13;5.27;;;5.17;;
80115;SDS011;69423;47.608;19.366;2023-06-22T00:00:44;5.00;;;5.00;;
80115;SDS011;69423;47.608;19.366;2023-06-22T00:01:15;5.27;;;5.17;;
80115;SDS011;69423;47.608;19.366;2023-06-22T00:01:46;5.10;;;5.07;;
80115;SDS011;69423;47.608;19.366;2023-06-22T00:02:17;5.20;;;5.13;;
80115;SDS011;69423;47.608;19.366;2023-06-22T00:02:49;5.33;;;5.27;;
80115;SDS011;69423;47.608;19.366;2023-06-22T00:03:20;5.33;;;5.23;;
80115;SDS011;69423;47.608;19.366;2023-06-22T00:03:54;5.83;;;5.73;;
80115;SDS011;69423;47.608;19.366;2023-06-22T00:04:25;5.30;;;5.23;;
80115;SDS011;69423;47.608;19.366;2023-06-22T00:04:56;4.67;;;4.60;;
80115;SDS011;69423;47.608;19.366;2023-06-22T00:05:27;5.10;;;5.10;;
80115;SDS011;69423;47.608;19.366;2023-06-22T00:05:58;5.10;;;5.07;;
80115;SDS011;69423;47.608;19.366;2023-06-22T00:06:29;5.30;;;5.30;;
80115;SDS011;69423;47.608;19.366;2023-06-22T00:07:00;5.17;;;5.13;;
80115;SDS011;69423;47.608;19.366;2023-06-22T00:07:31;4.57;;;4.50;;
80115;SDS011;69423;47.608;19.366;2023-06-22T00:08:03;5.17;;;5.13;;
80115;SDS011;69423;47.608;19.366;2023-06-22T00:08:35;5.23;;;5.17;;
80115;SDS011;69423;47.608;19.366;2023-06-22T00:09:06;4.77;;;4.70;;
80115;SDS011;69423;47.608;19.366;2023-06-22T00:09:37;5.50;;;5.40;;
80115;SDS011;69423;47.608;19.366;2023-06-22T00:10:08;5.27;;;5.23;;
80115;SDS011;69423;47.608;19.366;2023-06-22T00:10:40;5.47;;;5.40;;
80115;SDS011;69423;47.608;19.366;2023-06-22T00:11:11;5.67;;;5.57;;
80115;SDS011;69423;47.608;19.366;2023-06-22T00:11:42;5.13;;;5.07;;
80115;SDS011;69423;47.608;19.366;2023-06-22T00:12:13;4.80;;;4.73;;
80115;SDS011;69423;47.608;19.366;2023-06-22T00:12:44;4.83;;;4.80;;
80115;SDS011;69423;47.608;19.366;2023-06-22T00:13:16;5.10;;;5.10;;
80115;SDS011;69423;47.608;19.366;2023-06-22T00:13:48;4.77;;;4.73;;
80115;SDS011;69423;47.608;19.366;2023-06-22T00:14:19;4.80;;;4.77;;
80115;SDS011;69423;47.608;19.366;2023-06-22T00:14:50;5.17;;;5.17;;
80115;SDS011;69423;47.608;19.366;2023-06-22T00:15:22;5.17;;;5.13;;
80115;SDS011;69423;47.608;19.366;2023-06-22T00:15:53;4.90;;;4.83;;
80115;SDS011;69423;47.608;19.366;2023-06-22T00:16:24;5.27;;;5.23;;
80115;SDS011;69423;47.608;19.366;2023-06-22T00:16:55;5.60;;;5.57;;
80115;SDS011;69423;47.608;19.366;2023-06-22T00:17:27;5.37;;;5.27;;
80115;SDS011;69423;47.608;19.366;2023-06-22T00:17:58;5.00;;;4.97;;
80115;SDS011;69423;47.608;19.366;2023-06-22T00:18:30;5.57;;;5.57;;
80115;SDS011;69423;47.608;19.366;2023-06-22T00:19:02;5.23;;;5.20;;
80115;SDS011;69423;47.608;19.366;2023-06-22T00:19:34;4.83;;;4.83;;
80115;SDS011;69423;47.608;19.366;2023-06-22T00:20:07;4.53;;;4.47;;
80115;SDS011;69423;47.608;19.366;2023-06-22T00:20:39;5.13;;;5.03;;
80115;SDS011;69423;47.608;19.366;2023-06-22T00:21:12;4.83;;;4.77;;
80115;SDS011;69423;47.608;19.366;2023-06-22T00:21:43;4.97;;;4.97;;
80115;SDS011;69423;47.608;19.366;2023-06-22T00:22:17;5.07;;;5.07;;
80115;SDS011;69423;47.608;19.366;2023-06-22T00:22:48;4.90;;;4.87;;
80115;SDS011;69423;47.608;19.366;2023-06-22T00:23:19;5.27;;;5.20;;
80115;SDS011;69423;47.608;19.366;2023-06-22T00:23:50;5.40;;;5.37;;
80115;SDS011;69423;47.608;19.366;2023-06-22T00:24:22;5.57;;;5.50;;
80115;SDS011;69423;47.608;19.366;2023-06-22T00:24:55;5.70;;;5.60;;
80115;SDS011;69423;47.608;19.366;2023-06-22T00:25:26;5.07;;;5.00;;
80115;SDS011;69423;47.608;19.366;2023-06-22T00:25:57;6.03;;;5.93;;
80115;SDS011;69423;47.608;19.366;2023-06-22T00:26:28;6.10;;;6.00;;
80115;SDS011;69423;47.608;19.366;2023-06-22T00:26:59;5.57;;;5.47;;
80115;SDS011;69423;47.608;19.366;2023-06-22T00:27:30;5.67;;;5.57;;
80115;SDS011;69423;47.608;19.366;2023-06-22T00:28:01;5.67;;;5.57;;
80115;SDS011;69423;47.608;19.366;2023-06-22T00:28:33;5.50;;;5.43;;
80115;SDS011;69423;47.608;19.366;2023-06-22T00:29:04;5.47;;;5.43;;
80115;SDS011;69423;47.608;19.366;2023-06-22T00:29:35;5.83;;;5.77;;
80115;SDS011;69423;47.608;19.366;2023-06-22T00:30:07;5.70;;;5.70;;
80115;SDS011;69423;47.608;19.366;2023-06-22T00:30:38;5.67;;;5.67;;
80115;SDS011;69423;47.608;19.366;2023-06-22T00:31:09;6.20;;;6.13;;
80115;SDS011;69423;47.608;19.366;2023-06-22T00:31:40;5.57;;;5.53;;
80115;SDS011;69423;47.608;19.366;2023-06-22T00:32:11;5.47;;;5.43;;
80115;SDS011;69423;47.608;19.366;2023-06-22T00:32:43;6.17;;;6.13;;
80115;SDS011;69423;47.608;19.366;2023-06-22T00:33:15;6.07;;;6.03;;
80115;SDS011;69423;47.608;19.366;2023-06-22T00:33:46;6.57;;;6.50;;
80115;SDS011;69423;47.608;19.366;2023-06-22T00:34:18;6.53;;;6.43;;
80115;SDS011;69423;47.608;19.366;2023-06-22T00:34:49;6.50;;;6.40;;
80115;SDS011;69423;47.608;19.366;2023-06-22T00:35:21;6.20;;;6.10;;
80115;SDS011;69423;47.608;19.366;2023-06-22T00:35:52;6.50;;;6.47;;
80115;SDS011;69423;47.608;19.366;2023-06-22T00:36:25;6.43;;;6.37;;
80115;SDS011;69423;47.608;19.366;2023-06-22T00:36:56;6.07;;;6.07;;
80115;SDS011;69423;47.608;19.366;2023-06-22T00:37:27;6.37;;;6.33;;
80115;SDS011;69423;47.608;19.366;2023-06-22T00:38:00;6.07;;;6.07;;
80115;SDS011;69423;47.608;19.366;2023-06-22T00:38:32;6.40;;;6.40;;
80115;SDS011;69423;47.608;19.366;2023-06-22T00:39:03;6.53;;;6.40;;
80115;SDS011;69423;47.608;19.366;2023-06-22T00:39:34;6.30;;;6.20;;
80115;SDS011;69423;47.608;19.366;2023-06-22T00:40:05;6.43;;;6.33;;
80115;SDS011;69423;47.608;19.366;2023-06-22T00:40:39;6.53;;;6.47;;
80115;SDS011;69423;47.608;19.366;2023-06-22T00:41:10;6.30;;;6.20;;
80115;SDS011;69423;47.608;19.366;2023-06-22T00:41:41;6.63;;;6.53;;
80115;SDS011;69423;47.608;19.366;2023-06-22T00:42:12;6.20;;;6.10;;
80115;SDS011;69423;47.608;19.366;2023-06-22T00:42:43;6.43;;;6.30;;
80115;SDS011;69423;47.608;19.366;2023-06-22T00:43:14;6.40;;;6.30;;
80115;SDS011;69423;47.608;19.366;2023-06-22T00:43:45;7.07;;;6.87;;
80115;SDS011;69423;47.608;19.366;2023-06-22T00:44:16;6.87;;;6.73;;
80115;SDS011;69423;47.608;19.366;2023-06-22T00:44:47;6.57;;;6.43;;
80115;SDS011;69423;47.608;19.366;2023-06-22T00:45:18;6.37;;;6.23;;
80115;SDS011;69423;47.608;19.366;2023-06-22T00:45:49;6.80;;;6.67;;
80115;SDS011;69423;47.608;19.366;2023-06-22T00:46:21;6.60;;;6.53;;
80115;SDS011;69423;47.608;19.366;2023-06-22T00:46:53;6.27;;;6.20;;
80115;SDS011;69423;47.608;19.366;2023-06-22T00:47:24;6.90;;;6.80;;
80115;SDS011;69423;47.608;19.366;2023-06-22T00:47:57;6.13;;;6.03;;
80115;SDS011;69423;47.608;19.366;2023-06-22T00:48:29;6.40;;;6.33;;
80115;SDS011;69423;47.608;19.366;2023-06-22T00:49:00;6.70;;;6.63;;
80115;SDS011;69423;47.608;19.366;2023-06-22T00:49:32;6.20;;;6.17;;
80115;SDS011;69423;47.608;19.366;2023-06-22T00:50:03;6.50;;;6.47;;
80115;SDS011;69423;47.608;19.366;2023-06-22T00:50:37;6.13;;;6.13;;
80115;SDS011;69423;47.608;19.366;2023-06-22T00:51:10;6.53;;;6.50;;
80115;SDS011;69423;47.608;19.366;2023-06-22T00:51:42;6.27;;;6.23;;
80115;SDS011;69423;47.608;19.366;2023-06-22T00:52:16;6.40;;;6.40;;
80115;SDS011;69423;47.608;19.366;2023-06-22T00:52:52;6.20;;;6.20;;
80115;SDS011;69423;47.608;19.366;2023-06-22T00:53:27;6.23;;;6.23;;
80115;SDS011;69423;47.608;19.366;2023-06-22T00:53:58;6.23;;;6.23;;
80115;SDS011;69423;47.608;19.366;2023-06-22T00:54:29;6.50;;;6.50;;
80115;SDS011;69423;47.608;19.366;2023-06-22T00:55:01;6.43;;;6.43;;
80115;SDS011;69423;47.608;19.366;2023-06-22T00:55:42;6.47;;;6.47;;
80115;SDS011;69423;47.608;19.366;2023-06-22T00:56:16;6.87;;;6.80;;
80115;SDS011;69423;47.608;19.366;2023-06-22T00:56:53;6.77;;;6.67;;
80115;SDS011;69423;47.608;19.366;2023-06-22T00:57:25;6.93;;;6.83;;
80115;SDS011;69423;47.608;19.366;2023-06-22T00:57:58;6.83;;;6.73;;
80115;SDS011;69423;47.608;19.366;2023-06-22T00:58:29;6.90;;;6.80;;
80115;SDS011;69423;47.608;19.366;2023-06-22T00:59:01;7.33;;;7.20;;
80115;SDS011;69423;47.608;19.366;2023-06-22T00:59:34;6.90;;;6.80;;
80115;SDS011;69423;47.608;19.366;2023-06-22T01:00:05;6.60;;;6.50;;
80115;SDS011;69423;47.608;19.366;2023-06-22T01:00:39;6.67;;;6.53;;
80115;SDS011;69423;47.608;19.366;2023-06-22T01:01:11;6.53;;;6.43;;
80115;SDS011;69423;47.608;19.366;2023-06-22T01:01:44;6.43;;;6.33;;
80115;SDS011;69423;47.608;19.366;2023-06-22T01:02:15;6.40;;;6.30;;
80115;SDS011;69423;47.608;19.366;2023-06-22T01:02:46;6.93;;;6.87;;
80115;SDS011;69423;47.608;19.366;2023-06-22T01:03:21;7.07;;;7.00;;
80115;SDS011;69423;47.608;19.366;2023-06-22T01:03:52;6.97;;;6.83;;
80115;SDS011;69423;47.608;19.366;2023-06-22T01:04:33;7.20;;;7.03;;
80115;SDS011;69423;47.608;19.366;2023-06-22T01:05:06;6.80;;;6.70;;
80115;SDS011;69423;47.608;19.366;2023-06-22T01:05:38;6.53;;;6.43;;
80115;SDS011;69423;47.608;19.366;2023-06-22T01:06:12;6.83;;;6.80;;
80115;SDS011;69423;47.608;19.366;2023-06-22T01:07:00;6.57;;;6.50;;
80115;SDS011;69423;47.608;19.366;2023-06-22T01:07:35;6.77;;;6.60;;
80115;SDS011;69423;47.608;19.366;2023-06-22T01:08:56;6.53;;;6.47;;
80115;SDS011;69423;47.608;19.366;2023-06-22T01:09:38;7.37;;;7.23;;
80115;SDS011;69423;47.608;19.366;2023-06-22T01:10:27;6.80;;;6.70;;
80115;SDS011;69423;47.608;19.366;2023-06-22T01:11:36;7.03;;;6.87;;
80115;SDS011;69423;47.608;19.366;2023-06-22T01:12:12;7.03;;;6.97;;
80115;SDS011;69423;47.608;19.366;2023-06-22T01:12:48;6.60;;;6.50;;
80115;SDS011;69423;47.608;19.366;2023-06-22T01:14:15;7.27;;;7.13;;
80115;SDS011;69423;47.608;19.366;2023-06-22T01:14:55;7.23;;;7.23;;
80115;SDS011;69423;47.608;19.366;2023-06-22T01:15:44;7.00;;;6.83;;
80115;SDS011;69423;47.608;19.366;2023-06-22T01:16:40;7.53;;;7.37;;
80115;SDS011;69423;47.608;19.366;2023-06-22T01:17:14;6.90;;;6.90;;
80115;SDS011;69423;47.608;19.366;2023-06-22T01:17:48;7.10;;;7.10;;
80115;SDS011;69423;47.608;19.366;2023-06-22T01:18:22;6.80;;;6.80;;
80115;SDS011;69423;47.608;19.366;2023-06-22T01:18:57;7.07;;;7.03;;
80115;SDS011;69423;47.608;19.366;2023-06-22T01:19:45;7.00;;;6.87;;
80115;SDS011;69423;47.608;19.366;2023-06-22T01:20:18;6.37;;;6.33;;
80115;SDS011;69423;47.608;19.366;2023-06-22T01:20:53;6.63;;;6.63;;
80115;SDS011;69423;47.608;19.366;2023-06-22T01:21:28;6.87;;;6.80;;
80115;SDS011;69423;47.608;19.366;2023-06-22T01:22:02;6.57;;;6.47;;
80115;SDS011;69423;47.608;19.366;2023-06-22T01:22:39;6.93;;;6.83;;
80115;SDS011;69423;47.608;19.366;2023-06-22T01:24:23;7.07;;;6.93;;
80115;SDS011;69423;47.608;19.366;2023-06-22T01:26:54;7.47;;;7.27;;
80115;SDS011;69423;47.608;19.366;2023-06-22T01:27:33;7.30;;;7.20;;
80115;SDS011;69423;47.608;19.366;2023-06-22T01:28:52;6.93;;;6.80;;
80115;SDS011;69423;47.608;19.366;2023-06-22T01:29:26;7.67;;;7.53;;
80115;SDS011;69423;47.608;19.366;2023-06-22T01:29:59;7.70;;;7.53;;
80115;SDS011;69423;47.608;19.366;2023-06-22T01:30:35;7.77;;;7.63;;
80115;SDS011;69423;47.608;19.366;2023-06-22T01:31:10;7.47;;;7.47;;
80115;SDS011;69423;47.608;19.366;2023-06-22T01:31:43;7.67;;;7.57;;
80115;SDS011;69423;47.608;19.366;2023-06-22T01:32:16;7.47;;;7.30;;
80115;SDS011;69423;47.608;19.366;2023-06-22T01:32:48;7.43;;;7.30;;
80115;SDS011;69423;47.608;19.366;2023-06-22T01:33:22;7.53;;;7.40;;
80115;SDS011;69423;47.608;19.366;2023-06-22T01:33:54;7.57;;;7.40;;
80115;SDS011;69423;47.608;19.366;2023-06-22T01:34:29;7.50;;;7.37;;
80115;SDS011;69423;47.608;19.366;2023-06-22T01:35:03;6.87;;;6.83;;
80115;SDS011;69423;47.608;19.366;2023-06-22T01:35:37;7.27;;;7.20;;
80115;SDS011;69423;47.608;19.366;2023-06-22T01:36:10;7.00;;;7.00;;
80115;SDS011;69423;47.608;19.366;2023-06-22T01:36:44;7.47;;;7.30;;
80115;SDS011;69423;47.608;19.366;2023-06-22T01:37:16;7.07;;;6.97;;
80115;SDS011;69423;47.608;19.366;2023-06-22T01:37:48;6.80;;;6.67;;
80115;SDS011;69423;47.608;19.366;2023-06-22T01:38:20;7.33;;;7.10;;
80115;SDS011;69423;47.608;19.366;2023-06-22T01:38:53;7.33;;;7.10;;
80115;SDS011;69423;47.608;19.366;2023-06-22T01:39:24;7.43;;;7.23;;
80115;SDS011;69423;47.608;19.366;2023-06-22T01:39:56;7.40;;;7.33;;
80115;SDS011;69423;47.608;19.366;2023-06-22T01:40:29;7.33;;;7.33;;
80115;SDS011;69423;47.608;19.366;2023-06-22T01:41:02;7.37;;;7.27;;
80115;SDS011;69423;47.608;19.366;2023-06-22T01:41:35;7.60;;;7.50;;
80115;SDS011;69423;47.608;19.366;2023-06-22T01:42:08;7.87;;;7.70;;
80115;SDS011;69423;47.608;19.366;2023-06-22T01:42:40;7.63;;;7.43;;
80115;SDS011;69423;47.608;19.366;2023-06-22T01:43:13;7.70;;;7.53;;
80115;SDS011;69423;47.608;19.366;2023-06-22T01:43:45;7.87;;;7.63;;
80115;SDS011;69423;47.608;19.366;2023-06-22T01:44:17;7.60;;;7.37;;
80115;SDS011;69423;47.608;19.366;2023-06-22T01:44:48;8.33;;;8.07;;
80115;SDS011;69423;47.608;19.366;2023-06-22T01:45:20;7.77;;;7.67;;
80115;SDS011;69423;47.608;19.366;2023-06-22T01:45:52;8.20;;;8.20;;
80115;SDS011;69423;47.608;19.366;2023-06-22T01:46:25;8.03;;;7.93;;
80115;SDS011;69423;47.608;19.366;2023-06-22T01:46:56;7.87;;;7.83;;
80115;SDS011;69423;47.608;19.366;2023-06-22T01:47:27;7.33;;;7.33;;
80115;SDS011;69423;47.608;19.366;2023-06-22T01:47:59;7.67;;;7.67;;
80115;SDS011;69423;47.608;19.366;2023-06-22T01:48:31;7.63;;;7.63;;
80115;SDS011;69423;47.608;19.366;2023-06-22T01:49:02;7.67;;;7.67;;
80115;SDS011;69423;47.608;19.366;2023-06-22T01:49:35;7.27;;;7.27;;
80115;SDS011;69423;47.608;19.366;2023-06-22T01:50:06;7.47;;;7.37;;
80115;SDS011;69423;47.608;19.366;2023-06-22T01:50:37;7.50;;;7.47;;
80115;SDS011;69423;47.608;19.366;2023-06-22T01:51:08;7.63;;;7.63;;
80115;SDS011;69423;47.608;19.366;2023-06-22T01:51:40;8.57;;;8.43;;
80115;SDS011;69423;47.608;19.366;2023-06-22T01:52:11;8.37;;;8.37;;
80115;SDS011;69423;47.608;19.366;2023-06-22T01:52:42;8.40;;;8.37;;
80115;SDS011;69423;47.608;19.366;2023-06-22T01:53:13;8.17;;;8.17;;
80115;SDS011;69423;47.608;19.366;2023-06-22T01:53:44;8.07;;;7.97;;
80115;SDS011;69423;47.608;19.366;2023-06-22T01:54:16;7.97;;;7.77;;
80115;SDS011;69423;47.608;19.366;2023-06-22T01:54:47;8.23;;;8.00;;
80115;SDS011;69423;47.608;19.366;2023-06-22T01:55:18;8.27;;;8.07;;
80115;SDS011;69423;47.608;19.366;2023-06-22T01:55:49;8.60;;;8.40;;
80115;SDS011;69423;47.608;19.366;2023-06-22T01:56:20;8.03;;;7.80;;
80115;SDS011;69423;47.608;19.366;2023-06-22T01:56:52;8.40;;;8.13;;
80115;SDS011;69423;47.608;19.366;2023-06-22T01:57:23;8.93;;;8.63;;
80115;SDS011;69423;47.608;19.366;2023-06-22T01:57:54;8.67;;;8.37;;
80115;SDS011;69423;47.608;19.366;2023-06-22T01:58:26;8.57;;;8.33;;
80115;SDS011;69423;47.608;19.366;2023-06-22T01:59:43;8.77;;;8.47;;
80115;SDS011;69423;47.608;19.366;2023-06-22T02:00:23;8.77;;;8.53;;
80115;SDS011;69423;47.608;19.366;2023-06-22T02:01:00;7.87;;;7.70;;
80115;SDS011;69423;47.608;19.366;2023-06-22T02:01:43;7.90;;;7.77;;
80115;SDS011;69423;47.608;19.366;2023-06-22T02:02:20;7.93;;;7.83;;
80115;SDS011;69423;47.608;19.366;2023-06-22T02:03:01;7.87;;;7.70;;
80115;SDS011;69423;47.608;19.366;2023-06-22T02:03:42;7.83;;;7.73;;
80115;SDS011;69423;47.608;19.366;2023-06-22T02:04:24;7.57;;;7.40;;
80115;SDS011;69423;47.608;19.366;2023-06-22T02:05:05;7.90;;;7.90;;
80115;SDS011;69423;47.608;19.366;2023-06-22T02:05:47;7.87;;;7.87;;
80115;SDS011;69423;47.608;19.366;2023-06-22T02:06:23;8.27;;;8.20;;
80115;SDS011;69423;47.608;19.366;2023-06-22T02:06:58;8.83;;;8.63;;
80115;SDS011;69423;47.608;19.366;2023-06-22T02:07:32;9.47;;;9.20;;
80115;SDS011;69423;47.608;19.366;2023-06-22T02:08:13;8.97;;;8.83;;
80115;SDS011;69423;47.608;19.366;2023-06-22T02:08:55;8.67;;;8.63;;
80115;SDS011;69423;47.608;19.366;2023-06-22T02:09:31;8.77;;;8.63;;
80115;SDS011;69423;47.608;19.366;2023-06-22T02:10:06;7.97;;;7.90;;
80115;SDS011;69423;47.608;19.366;2023-06-22T02:10:40;8.27;;;8.17;;
80115;SDS011;69423;47.608;19.366;2023-06-22T02:11:13;8.30;;;8.03;;
80115;SDS011;69423;47.608;19.366;2023-06-22T02:11:47;8.43;;;8.17;;
80115;SDS011;69423;47.608;19.366;2023-06-22T02:12:22;8.20;;;7.93;;
80115;SDS011;69423;47.608;19.366;2023-06-22T02:12:58;8.07;;;7.80;;
80115;SDS011;69423;47.608;19.366;2023-06-22T02:13:30;8.23;;;7.93;;
80115;SDS011;69423;47.608;19.366;2023-06-22T02:14:03;7.67;;;7.37;;
80115;SDS011;69423;47.608;19.366;2023-06-22T02:14:37;7.90;;;7.60;;
80115;SDS011;69423;47.608;19.366;2023-06-22T02:15:09;8.43;;;8.17;;
80115;SDS011;69423;47.608;19.366;2023-06-22T02:15:43;8.13;;;7.93;;
80115;SDS011;69423;47.608;19.366;2023-06-22T02:16:15;7.87;;;7.73;;
80115;SDS011;69423;47.608;19.366;2023-06-22T02:16:48;8.47;;;8.27;;
80115;SDS011;69423;47.608;19.366;2023-06-22T02:17:21;8.47;;;8.20;;
80115;SDS011;69423;47.608;19.366;2023-06-22T02:17:54;8.17;;;7.93;;
80115;SDS011;69423;47.608;19.366;2023-06-22T02:18:25;8.00;;;7.77;;
80115;SDS011;69423;47.608;19.366;2023-06-22T02:18:56;8.07;;;7.80;;
80115;SDS011;69423;47.608;19.366;2023-06-22T02:19:28;7.93;;;7.60;;
80115;SDS011;69423;47.608;19.366;2023-06-22T02:20:03;7.77;;;7.47;;
80115;SDS011;69423;47.608;19.366;2023-06-22T02:20:38;7.13;;;7.10;;
80115;SDS011;69423;47.608;19.366;2023-06-22T02:21:09;8.03;;;7.97;;
80115;SDS011;69423;47.608;19.366;2023-06-22T02:21:40;8.03;;;7.83;;
80115;SDS011;69423;47.608;19.366;2023-06-22T02:22:12;8.07;;;7.83;;
80115;SDS011;69423;47.608;19.366;2023-06-22T02:22:46;8.47;;;8.17;;
80115;SDS011;69423;47.608;19.366;2023-06-22T02:23:17;7.80;;;7.57;;
80115;SDS011;69423;47.608;19.366;2023-06-22T02:23:48;7.87;;;7.63;;
80115;SDS011;69423;47.608;19.366;2023-06-22T02:24:19;8.63;;;8.33;;
80115;SDS011;69423;47.608;19.366;2023-06-22T02:24:50;8.37;;;8.13;;
80115;SDS011;69423;47.608;19.366;2023-06-22T02:25:21;8.03;;;7.83;;
80115;SDS011;69423;47.608;19.366;2023-06-22T02:25:52;7.70;;;7.50;;
80115;SDS011;69423;47.608;19.366;2023-06-22T02:26:23;7.90;;;7.70;;
80115;SDS011;69423;47.608;19.366;2023-06-22T02:26:55;8.33;;;8.13;;
80115;SDS011;69423;47.608;19.366;2023-06-22T02:27:28;8.27;;;8.07;;
80115;SDS011;69423;47.608;19.366;2023-06-22T02:27:59;7.67;;;7.50;;
80115;SDS011;69423;47.608;19.366;2023-06-22T02:28:30;8.30;;;8.13;;
80115;SDS011;69423;47.608;19.366;2023-06-22T02:29:01;8.23;;;8.17;;
80115;SDS011;69423;47.608;19.366;2023-06-22T02:29:32;7.90;;;7.87;;
80115;SDS011;69423;47.608;19.366;2023-06-22T02:31:08;7.50;;;7.50;;
80115;SDS011;69423;47.608;19.366;2023-06-22T02:31:39;7.90;;;7.80;;
80115;SDS011;69423;47.608;19.366;2023-06-22T02:32:10;7.67;;;7.63;;
80115;SDS011;69423;47.608;19.366;2023-06-22T02:32:42;7.73;;;7.60;;
80115;SDS011;69423;47.608;19.366;2023-06-22T02:33:13;7.73;;;7.60;;
80115;SDS011;69423;47.608;19.366;2023-06-22T02:33:44;7.40;;;7.40;;
80115;SDS011;69423;47.608;19.366;2023-06-22T02:34:15;7.27;;;7.27;;
80115;SDS011;69423;47.608;19.366;2023-06-22T02:34:48;7.87;;;7.80;;
80115;SDS011;69423;47.608;19.366;2023-06-22T02:35:19;7.80;;;7.63;;
80115;SDS011;69423;47.608;19.366;2023-06-22T02:35:50;7.27;;;7.13;;
80115;SDS011;69423;47.608;19.366;2023-06-22T02:36:21;7.80;;;7.60;;
80115;SDS011;69423;47.608;19.366;2023-06-22T02:36:53;8.03;;;7.87;;
80115;SDS011;69423;47.608;19.366;2023-06-22T02:37:24;8.30;;;8.07;;
80115;SDS011;69423;47.608;19.366;2023-06-22T02:37:55;8.00;;;7.90;;
80115;SDS011;69423;47.608;19.366;2023-06-22T02:38:26;7.47;;;7.47;;
80115;SDS011;69423;47.608;19.366;2023-06-22T02:38:58;7.17;;;7.10;;
80115;SDS011;69423;47.608;19.366;2023-06-22T02:39:31;7.33;;;7.33;;
80115;SDS011;69423;47.608;19.366;2023-06-22T02:40:02;7.03;;;7.03;;
80115;SDS011;69423;47.608;19.366;2023-06-22T02:40:34;7.07;;;6.97;;
80115;SDS011;69423;47.608;19.366;2023-06-22T02:41:05;7.80;;;7.70;;
80115;SDS011;69423;47.608;19.366;2023-06-22T02:41:37;8.20;;;8.07;;
80115;SDS011;69423;47.608;19.366;2023-06-22T02:42:08;7.50;;;7.37;;
80115;SDS011;69423;47.608;19.366;2023-06-22T02:42:41;7.73;;;7.57;;
80115;SDS011;69423;47.608;19.366;2023-06-22T02:43:12;7.87;;;7.73;;
80115;SDS011;69423;47.608;19.366;2023-06-22T02:43:44;7.77;;;7.70;;
80115;SDS011;69423;47.608;19.366;2023-06-22T02:44:18;7.37;;;7.37;;
80115;SDS011;69423;47.608;19.366;2023-06-22T02:44:50;7.43;;;7.40;;
80115;SDS011;69423;47.608;19.366;2023-06-22T02:45:21;7.90;;;7.70;;
80115;SDS011;69423;47.608;19.366;2023-06-22T02:45:52;8.13;;;8.03;;
80115;SDS011;69423;47.608;19.366;2023-06-22T02:46:23;8.30;;;8.20;;
80115;SDS011;69423;47.608;19.366;2023-06-22T02:46:55;7.70;;;7.50;;
80115;SDS011;69423;47.608;19.366;2023-06-22T02:47:26;7.57;;;7.37;;
80115;SDS011;69423;47.608;19.366;2023-06-22T02:47:57;8.00;;;7.77;;
80115;SDS011;69423;47.608;19.366;2023-06-22T02:48:28;7.73;;;7.53;;
80115;SDS011;69423;47.608;19.366;2023-06-22T02:48:59;7.70;;;7.57;;
80115;SDS011;69423;47.608;19.366;2023-06-22T02:49:30;7.60;;;7.40;;
80115;SDS011;69423;47.608;19.366;2023-06-22T02:50:02;8.33;;;8.13;;
80115;SDS011;69423;47.608;19.366;2023-06-22T02:50:33;8.23;;;8.00;;
80115;SDS011;69423;47.608;19.366;2023-06-22T02:51:04;8.30;;;8.10;;
80115;SDS011;69423;47.608;19.366;2023-06-22T02:51:35;7.87;;;7.63;;
80115;SDS011;69423;47.608;19.366;2023-06-22T02:52:06;7.87;;;7.73;;
80115;SDS011;69423;47.608;19.366;2023-06-22T02:52:37;7.80;;;7.80;;
80115;SDS011;69423;47.608;19.366;2023-06-22T02:53:09;7.10;;;7.10;;
80115;SDS011;69423;47.608;19.366;2023-06-22T02:53:40;7.03;;;7.03;;
80115;SDS011;69423;47.608;19.366;2023-06-22T02:54:15;7.63;;;7.63;;
80115;SDS011;69423;47.608;19.366;2023-06-22T02:54:46;7.90;;;7.90;;
80115;SDS011;69423;47.608;19.366;2023-06-22T02:55:17;7.97;;;7.97;;
80115;SDS011;69423;47.608;19.366;2023-06-22T02:55:49;7.50;;;7.37;;
80115;SDS011;69423;47.608;19.366;2023-06-22T02:56:20;7.87;;;7.70;;
80115;SDS011;69423;47.608;19.366;2023-06-22T02:56:55;8.63;;;8.30;;
80115;SDS011;69423;47.608;19.366;2023-06-22T02:57:26;8.03;;;7.80;;
80115;SDS011;69423;47.608;19.366;2023-06-22T02:57:57;7.77;;;7.77;;
80115;SDS011;69423;47.608;19.366;2023-06-22T02:58:30;7.87;;;7.87;;
80115;SDS011;69423;47.608;19.366;2023-06-22T02:59:02;8.07;;;8.07;;
80115;SDS011;69423;47.608;19.366;2023-06-22T02:59:33;7.73;;;7.73;;
80115;SDS011;69423;47.608;19.366;2023-06-22T03:00:04;8.13;;;8.13;;
80115;SDS011;69423;47.608;19.366;2023-06-22T03:00:47;8.30;;;8.27;;
80115;SDS011;69423;47.608;19.366;2023-06-22T03:01:18;7.97;;;7.93;;
80115;SDS011;69423;47.608;19.366;2023-06-22T03:01:54;8.40;;;8.30;;
80115;SDS011;69423;47.608;19.366;2023-06-22T03:02:26;8.07;;;7.90;;
80115;SDS011;69423;47.608;19.366;2023-06-22T03:02:58;8.20;;;8.00;;
80115;SDS011;69423;47.608;19.366;2023-06-22T03:03:29;8.27;;;8.07;;
80115;SDS011;69423;47.608;19.366;2023-06-22T03:04:00;8.33;;;8.13;;
80115;SDS011;69423;47.608;19.366;2023-06-22T03:04:31;8.20;;;8.00;;
80115;SDS011;69423;47.608;19.366;2023-06-22T03:05:02;8.03;;;7.83;;
80115;SDS011;69423;47.608;19.366;2023-06-22T03:05:34;8.13;;;8.03;;
80115;SDS011;69423;47.608;19.366;2023-06-22T03:06:05;8.40;;;8.27;;
80115;SDS011;69423;47.608;19.366;2023-06-22T03:06:36;8.40;;;8.30;;
80115;SDS011;69423;47.608;19.366;2023-06-22T03:07:07;8.47;;;8.40;;
80115;SDS011;69423;47.608;19.366;2023-06-22T03:07:41;8.23;;;8.10;;
80115;SDS011;69423;47.608;19.366;2023-06-22T03:08:13;7.67;;;7.63;;
80115;SDS011;69423;47.608;19.366;2023-06-22T03:08:44;7.67;;;7.67;;
80115;SDS011;69423;47.608;19.366;2023-06-22T03:09:15;7.57;;;7.50;;
80115;SDS011;69423;47.608;19.366;2023-06-22T03:09:46;8.03;;;7.87;;
80115;SDS011;69423;47.608;19.366;2023-06-22T03:10:17;8.00;;;7.80;;
80115;SDS011;69423;47.608;19.366;2023-06-22T03:10:48;7.97;;;7.77;;
80115;SDS011;69423;47.608;19.366;2023-06-22T03:11:19;8.50;;;8.27;;
80115;SDS011;69423;47.608;19.366;2023-06-22T03:11:50;8.43;;;8.23;;
80115;SDS011;69423;47.608;19.366;2023-06-22T03:12:21;8.80;;;8.50;;
80115;SDS011;69423;47.608;19.366;2023-06-22T03:12:52;8.33;;;8.13;;
80115;SDS011;69423;47.608;19.366;2023-06-22T03:13:23;7.97;;;7.77;;
80115;SDS011;69423;47.608;19.366;2023-06-22T03:13:54;7.87;;;7.70;;
80115;SDS011;69423;47.608;19.366;2023-06-22T03:14:25;8.43;;;8.27;;
80115;SDS011;69423;47.608;19.366;2023-06-22T03:14:56;8.27;;;8.07;;
80115;SDS011;69423;47.608;19.366;2023-06-22T03:15:28;7.40;;;7.20;;
80115;SDS011;69423;47.608;19.366;2023-06-22T03:16:03;8.27;;;8.07;;
80115;SDS011;69423;47.608;19.366;2023-06-22T03:16:34;9.17;;;8.87;;
80115;SDS011;69423;47.608;19.366;2023-06-22T03:17:05;8.60;;;8.37;;
80115;SDS011;69423;47.608;19.366;2023-06-22T03:17:37;7.93;;;7.90;;
80115;SDS011;69423;47.608;19.366;2023-06-22T03:18:09;7.70;;;7.67;;
80115;SDS011;69423;47.608;19.366;2023-06-22T03:18:40;7.83;;;7.77;;
80115;SDS011;69423;47.608;19.366;2023-06-22T03:19:11;8.07;;;8.07;;
80115;SDS011;69423;47.608;19.366;2023-06-22T03:19:42;7.90;;;7.90;;
80115;SDS011;69423;47.608;19.366;2023-06-22T03:20:13;7.60;;;7.60;;
80115;SDS011;69423;47.608;19.366;2023-06-22T03:20:44;7.53;;;7.50;;
80115;SDS011;69423;47.608;19.366;2023-06-22T03:21:15;8.30;;;8.10;;
80115;SDS011;69423;47.608;19.366;2023-06-22T03:21:47;8.53;;;8.30;;